createdAt,value
2022-08-25T00:02:00.514Z,20.83
2022-08-25T00:04:30.531Z,24.95
2022-08-25T00:07:02.777Z,21.25
2022-08-25T00:09:32.823Z,23.15
2022-08-25T00:12:01.314Z,26.75
2022-08-25T00:14:33.496Z,25.85
2022-08-25T00:17:01.893Z,28.73
2022-08-25T00:19:32.816Z,30.38
2022-08-25T00:22:00.785Z,31.52
2022-08-25T00:24:28.994Z,22.60
2022-08-25T00:26:59.089Z,24.63
2022-08-25T00:29:28.836Z,25.30
2022-08-25T00:31:58.621Z,26.60
2022-08-25T00:34:29.778Z,27.27
2022-08-25T00:36:57.414Z,32.33
2022-08-25T00:39:25.480Z,27.20
2022-08-25T00:41:56.542Z,24.60
2022-08-25T00:44:25.821Z,27.17
2022-08-25T00:46:55.460Z,35.20
2022-08-25T00:49:29.209Z,23.58
2022-08-25T00:52:01.320Z,24.05
2022-08-25T00:54:32.380Z,28.63
2022-08-25T00:57:01.259Z,26.73
2022-08-25T00:59:30.089Z,25.27
2022-08-25T01:01:59.236Z,29.48
2022-08-25T01:04:28.676Z,38.17
2022-08-25T01:06:57.796Z,22.25
2022-08-25T01:09:26.124Z,24.42
2022-08-25T01:11:53.811Z,32.30
2022-08-25T01:14:24.342Z,34.28
2022-08-25T01:16:54.577Z,24.58
2022-08-25T01:19:22.235Z,21.35
2022-08-25T01:21:53.198Z,26.52
2022-08-25T01:24:26.322Z,23.30
2022-08-25T01:26:53.995Z,35.10
2022-08-25T01:29:21.640Z,24.48
2022-08-25T01:31:50.210Z,26.90
2022-08-25T01:34:20.378Z,37.78
2022-08-25T01:36:48.562Z,19.10
2022-08-25T01:39:18.291Z,23.38
2022-08-25T01:41:58.736Z,25.50
2022-08-25T01:44:26.779Z,24.58
2022-08-25T01:46:55.223Z,31.70
2022-08-25T01:49:23.289Z,26.80
2022-08-25T01:51:55.943Z,25.33
2022-08-25T01:54:25.027Z,21.55
2022-08-25T01:56:52.892Z,26.98
2022-08-25T01:59:24.283Z,26.77
2022-08-25T02:01:59.903Z,23.73
2022-08-25T02:04:28.365Z,25.35
2022-08-25T02:06:56.287Z,22.60
2022-08-25T02:09:25.621Z,24.25
2022-08-25T02:11:53.657Z,23.55
2022-08-25T02:14:21.301Z,22.90
2022-08-25T02:16:51.369Z,26.20
2022-08-25T02:19:21.153Z,24.42
2022-08-25T02:21:48.753Z,19.65
2022-08-25T02:24:17.434Z,23.95
2022-08-25T02:26:46.844Z,21.83
2022-08-25T02:29:14.774Z,21.70
2022-08-25T02:31:42.697Z,20.83
2022-08-25T02:34:12.186Z,19.95
2022-08-25T02:36:40.225Z,24.13
2022-08-25T02:39:09.364Z,24.48
2022-08-25T02:41:38.038Z,29.55
2022-08-25T02:44:08.596Z,25.08
2022-08-25T02:46:37.788Z,24.75
2022-08-25T02:49:06.033Z,23.58
2022-08-25T02:51:34.570Z,28.33
2022-08-25T02:54:03.708Z,27.73
2022-08-25T02:56:32.189Z,23.45
2022-08-25T02:59:00.866Z,27.38
2022-08-25T03:01:31.621Z,28.10
2022-08-25T03:03:59.525Z,29.48
2022-08-25T03:06:27.467Z,27.95
2022-08-25T03:08:55.678Z,26.80
2022-08-25T03:11:24.973Z,25.45
2022-08-25T03:13:53.483Z,26.40
2022-08-25T03:16:21.389Z,26.20
2022-08-25T03:18:50.438Z,35.05
2022-08-25T03:21:18.851Z,24.30
2022-08-25T03:23:46.581Z,24.92
2022-08-25T03:26:14.541Z,27.65
2022-08-25T03:28:42.518Z,23.90
2022-08-25T03:31:10.701Z,25.92
2022-08-25T03:33:38.316Z,27.48
2022-08-25T03:36:09.568Z,26.90
2022-08-25T03:38:37.500Z,28.85
2022-08-25T03:41:16.249Z,23.77
2022-08-25T03:43:44.275Z,23.77
2022-08-25T03:46:18.131Z,26.13
2022-08-25T03:48:46.396Z,22.75
2022-08-25T03:51:19.791Z,29.08
2022-08-25T03:53:47.942Z,22.13
2022-08-25T03:56:15.774Z,24.27
2022-08-25T03:58:43.525Z,25.77
2022-08-25T04:01:12.150Z,26.23
2022-08-25T04:03:39.954Z,26.65
2022-08-25T04:06:08.263Z,24.13
2022-08-25T04:08:38.294Z,35.00
2022-08-25T04:11:07.313Z,29.42
2022-08-25T04:13:36.527Z,38.03
2022-08-25T04:16:05.177Z,25.77
2022-08-25T04:18:32.987Z,29.85
2022-08-25T04:21:05.756Z,28.38
2022-08-25T04:23:33.664Z,24.88
2022-08-25T04:26:07.901Z,32.92
2022-08-25T04:28:35.620Z,35.00
2022-08-25T04:31:06.610Z,23.67
2022-08-25T04:33:34.646Z,27.73
2022-08-25T04:36:02.409Z,28.70
2022-08-25T04:38:30.171Z,30.75
2022-08-25T04:41:00.898Z,29.67
2022-08-25T04:43:30.691Z,30.17
2022-08-25T04:45:58.859Z,34.13
2022-08-25T04:48:27.158Z,22.73
2022-08-25T04:50:54.806Z,24.55
2022-08-25T04:53:22.487Z,24.67
2022-08-25T04:55:50.290Z,24.65
2022-08-25T04:58:18.278Z,30.85
2022-08-25T05:00:47.302Z,31.35
2022-08-25T05:03:15.141Z,29.05
2022-08-25T05:05:42.946Z,32.10
2022-08-25T05:08:10.626Z,25.88
2022-08-25T05:10:40.480Z,30.92
2022-08-25T05:13:10.030Z,35.67
2022-08-25T05:15:37.962Z,29.50
2022-08-25T05:18:07.498Z,43.30
2022-08-25T05:20:36.528Z,25.48
2022-08-25T05:23:05.501Z,36.83
2022-08-25T05:25:36.325Z,29.85
2022-08-25T05:28:04.179Z,29.70
2022-08-25T05:30:31.935Z,22.17
2022-08-25T05:32:59.753Z,31.77
2022-08-25T05:35:29.063Z,34.85
2022-08-25T05:37:56.864Z,29.63
2022-08-25T05:40:25.740Z,30.73
2022-08-25T05:42:53.363Z,33.08
2022-08-25T05:45:21.544Z,29.13
2022-08-25T05:47:50.003Z,34.17
2022-08-25T05:50:18.221Z,44.45
2022-08-25T05:52:47.515Z,40.60
2022-08-25T05:55:15.612Z,35.00
2022-08-25T05:57:43.371Z,34.40
2022-08-25T06:00:12.062Z,31.80
2022-08-25T06:02:40.802Z,38.15
2022-08-25T06:05:09.205Z,34.90
2022-08-25T06:07:37.247Z,33.47
2022-08-25T06:10:08.455Z,42.47
2022-08-25T06:12:36.406Z,42.47
2022-08-25T06:15:05.373Z,44.53
2022-08-25T06:17:33.610Z,38.33
2022-08-25T06:20:01.644Z,40.10
2022-08-25T06:22:30.682Z,32.20
2022-08-25T06:24:58.681Z,48.35
2022-08-25T06:27:27.784Z,39.83
2022-08-25T06:29:56.073Z,53.30
2022-08-25T06:32:23.873Z,42.00
2022-08-25T06:34:51.818Z,30.92
2022-08-25T06:37:23.278Z,46.92
2022-08-25T06:39:52.878Z,48.10
2022-08-25T06:42:20.670Z,39.95
2022-08-25T06:44:49.746Z,46.42
2022-08-25T06:47:18.901Z,43.45
2022-08-25T06:49:46.999Z,60.08
2022-08-25T06:52:15.515Z,37.47
2022-08-25T06:54:44.296Z,42.15
2022-08-25T06:57:14.816Z,52.28
2022-08-25T06:59:43.283Z,39.80
2022-08-25T07:02:12.665Z,42.60
2022-08-25T07:04:45.469Z,65.40
2022-08-25T07:07:13.540Z,43.40
2022-08-25T07:09:41.456Z,44.40
2022-08-25T07:12:09.248Z,40.95
2022-08-25T07:14:37.427Z,49.47
2022-08-25T07:17:12.526Z,46.75
2022-08-25T07:19:42.054Z,40.65
2022-08-25T07:22:09.733Z,48.42
2022-08-25T07:24:37.577Z,49.15
2022-08-25T07:27:05.634Z,43.83
2022-08-25T07:29:33.856Z,41.65
2022-08-25T07:32:02.541Z,44.80
2022-08-25T07:34:31.412Z,49.17
2022-08-25T07:37:00.809Z,44.15
2022-08-25T07:39:29.115Z,52.70
2022-08-25T07:41:57.467Z,54.05
2022-08-25T07:44:28.163Z,40.53
2022-08-25T07:46:56.378Z,43.40
2022-08-25T07:49:26.831Z,38.22
2022-08-25T07:52:06.641Z,47.50
2022-08-25T07:54:37.771Z,54.80
2022-08-25T07:57:08.040Z,41.42
2022-08-25T07:59:40.231Z,41.05
2022-08-25T08:02:17.855Z,40.38
2022-08-25T08:04:48.256Z,51.92
2022-08-25T08:07:18.953Z,44.75
2022-08-25T08:09:46.953Z,42.40
2022-08-25T08:12:17.085Z,60.45
2022-08-25T08:14:46.642Z,51.72
2022-08-25T08:17:14.498Z,45.72
2022-08-25T08:19:45.374Z,40.33
2022-08-25T08:22:14.699Z,42.95
2022-08-25T08:24:54.491Z,39.70
2022-08-25T08:29:51.175Z,39.85
2022-08-25T08:32:18.892Z,43.10
2022-08-25T08:34:47.148Z,51.33
2022-08-25T08:37:20.269Z,47.28
2022-08-25T08:39:52.094Z,38.33
2022-08-25T08:42:38.158Z,45.85
2022-08-25T08:45:24.448Z,34.38
2022-08-25T08:48:12.343Z,45.08
2022-08-25T08:50:52.535Z,37.53
2022-08-25T08:53:28.136Z,38.80
2022-08-25T08:56:08.986Z,29.02
2022-08-25T08:58:43.912Z,33.35
2022-08-25T09:01:17.358Z,25.73
2022-08-25T09:03:55.201Z,42.17
2022-08-25T09:06:28.782Z,30.23
2022-08-25T09:08:59.541Z,36.13
2022-08-25T09:11:45.391Z,24.13
2022-08-25T09:14:30.405Z,17.17
2022-08-25T09:17:03.594Z,25.58
2022-08-25T09:19:44.062Z,20.73
2022-08-25T09:22:35.164Z,23.02
2022-08-25T09:25:11.756Z,22.05
2022-08-25T09:27:47.293Z,36.22
2022-08-25T09:30:17.386Z,23.20
2022-08-25T09:32:52.611Z,30.05
2022-08-25T09:35:24.494Z,23.45
2022-08-25T09:37:57.200Z,25.27
2022-08-25T09:40:27.176Z,24.20
2022-08-25T09:42:58.846Z,24.65
2022-08-25T09:45:40.114Z,31.67
2022-08-25T09:48:22.927Z,24.30
2022-08-25T09:50:55.420Z,23.95
2022-08-25T09:53:26.927Z,25.33
2022-08-25T09:56:00.591Z,20.15
2022-08-25T09:58:30.162Z,21.00
2022-08-25T10:03:36.493Z,31.48
2022-08-25T10:06:13.235Z,19.00
2022-08-25T10:08:55.855Z,24.92
2022-08-25T10:11:34.326Z,25.27
2022-08-25T10:14:15.367Z,31.83
2022-08-25T10:16:46.916Z,23.85
2022-08-25T10:19:24.347Z,19.48
2022-08-25T10:22:07.640Z,26.13
2022-08-25T10:24:36.144Z,20.77
2022-08-25T10:27:18.614Z,33.95
2022-08-25T10:30:07.331Z,24.60
2022-08-25T10:33:05.648Z,19.33
2022-08-25T10:35:48.012Z,31.85
2022-08-25T10:38:37.081Z,24.23
2022-08-25T10:41:22.225Z,31.75
2022-08-25T10:43:58.641Z,29.50
2022-08-25T10:46:36.599Z,20.95
2022-08-25T10:49:11.223Z,24.80
2022-08-25T10:51:53.531Z,23.08
2022-08-25T10:54:38.851Z,20.35
2022-08-25T10:57:17.436Z,26.00
2022-08-25T10:59:57.264Z,22.48
2022-08-25T11:05:24.545Z,20.90
2022-08-25T11:07:58.791Z,24.55
2022-08-25T11:10:35.455Z,16.88
2022-08-25T11:13:11.164Z,20.20
2022-08-25T11:16:13.303Z,28.35
2022-08-25T11:18:43.296Z,19.45
2022-08-25T11:21:16.137Z,24.15
2022-08-25T11:23:50.870Z,26.70
2022-08-25T11:26:28.886Z,19.90
2022-08-25T11:29:04.719Z,20.48
2022-08-25T11:31:38.930Z,25.45
2022-08-25T11:34:11.847Z,28.45
2022-08-25T11:36:42.176Z,21.00
2022-08-25T11:39:21.259Z,25.50
2022-08-25T11:42:04.630Z,21.73
2022-08-25T11:44:51.880Z,30.50
2022-08-25T11:47:47.857Z,32.47
2022-08-25T11:50:36.427Z,27.58
2022-08-25T11:53:26.540Z,33.13
2022-08-25T11:55:56.635Z,41.38
2022-08-25T11:58:40.774Z,32.88
2022-08-25T12:01:12.208Z,40.53
2022-08-25T12:03:50.823Z,33.42
2022-08-25T12:06:26.745Z,36.67
2022-08-25T12:09:21.749Z,29.67
2022-08-25T12:11:52.851Z,27.33
2022-08-25T12:14:45.666Z,34.55
2022-08-25T12:17:36.711Z,28.00
2022-08-25T12:20:05.408Z,30.17
2022-08-25T12:22:57.295Z,32.30
2022-08-25T12:25:38.671Z,28.33
2022-08-25T12:28:16.975Z,36.53
2022-08-25T12:30:55.165Z,37.53
2022-08-25T12:33:34.828Z,26.70
2022-08-25T12:36:05.110Z,24.85
2022-08-25T12:38:42.468Z,30.65
2022-08-25T12:41:14.650Z,31.95
2022-08-25T12:43:45.245Z,31.20
2022-08-25T12:46:36.985Z,36.72
2022-08-25T12:49:11.958Z,42.63
2022-08-25T12:51:53.094Z,29.60
2022-08-25T12:56:56.350Z,29.63
2022-08-25T12:59:35.219Z,37.30
2022-08-25T13:02:35.816Z,35.35
2022-08-25T13:05:33.491Z,31.55
2022-08-25T13:08:27.052Z,42.40
2022-08-25T13:11:09.310Z,35.55
2022-08-25T13:13:56.616Z,44.92
2022-08-25T13:16:29.418Z,42.20
2022-08-25T13:18:58.806Z,37.47
2022-08-25T13:21:30.570Z,37.67
2022-08-25T13:24:04.711Z,40.30
2022-08-25T13:26:39.215Z,36.08
2022-08-25T13:29:20.409Z,44.92
2022-08-25T13:31:54.137Z,37.92
2022-08-25T13:34:30.416Z,30.90
2022-08-25T13:37:07.471Z,37.17
2022-08-25T13:39:55.835Z,38.08
2022-08-25T13:42:28.769Z,47.80
2022-08-25T13:44:57.080Z,33.67
2022-08-25T13:47:44.961Z,37.75
2022-08-25T13:50:20.998Z,41.88
2022-08-25T13:52:54.651Z,40.30
2022-08-25T13:55:27.762Z,37.25
2022-08-25T13:57:59.250Z,32.50
2022-08-25T14:03:08.734Z,49.97
2022-08-25T14:05:44.166Z,34.72
2022-08-25T14:08:31.995Z,45.50
2022-08-25T14:11:14.633Z,30.05
2022-08-25T14:13:45.342Z,48.00
2022-08-25T14:16:19.160Z,36.60
2022-08-25T14:18:49.210Z,39.05
2022-08-25T14:21:17.643Z,43.93
2022-08-25T14:23:46.999Z,31.10
2022-08-25T14:26:14.692Z,46.42
2022-08-25T14:28:42.390Z,28.80
2022-08-25T14:31:15.134Z,39.00
2022-08-25T14:33:49.903Z,41.83
2022-08-25T14:36:20.797Z,38.80
2022-08-25T14:38:54.844Z,39.80
2022-08-25T14:41:23.492Z,33.85
2022-08-25T14:43:51.854Z,32.00
2022-08-25T14:46:23.387Z,38.40
2022-08-25T14:48:55.350Z,39.92
2022-08-25T14:51:24.189Z,68.50
2022-08-25T14:53:54.260Z,49.00
2022-08-25T14:56:22.182Z,38.63
2022-08-25T14:58:54.207Z,54.13
2022-08-25T15:01:28.831Z,51.13
2022-08-25T15:04:03.649Z,56.72
2022-08-25T15:06:32.120Z,53.92
2022-08-25T15:08:59.892Z,49.58
2022-08-25T15:11:28.600Z,48.15
2022-08-25T15:13:56.872Z,34.60
2022-08-25T15:16:33.973Z,47.70
2022-08-25T15:19:06.593Z,39.55
2022-08-25T15:21:35.808Z,41.83
2022-08-25T15:24:04.285Z,44.58
2022-08-25T15:26:34.356Z,47.03
2022-08-25T15:29:02.060Z,48.50
2022-08-25T15:31:31.570Z,42.50
2022-08-25T15:33:59.562Z,33.72
2022-08-25T15:36:27.883Z,32.40
2022-08-25T15:38:55.873Z,35.80
2022-08-25T15:41:27.811Z,41.20
2022-08-25T15:43:55.636Z,48.13
2022-08-25T15:46:26.873Z,64.43
2022-08-25T15:51:29.211Z,48.60
2022-08-25T15:53:57.611Z,44.30
2022-08-25T15:56:26.750Z,46.00
2022-08-25T15:58:54.998Z,58.47
2022-08-25T16:01:25.638Z,34.70
2022-08-25T16:03:53.587Z,56.28
2022-08-25T16:06:24.340Z,49.55
2022-08-25T16:08:53.021Z,54.50
2022-08-25T16:11:24.750Z,72.35
2022-08-25T16:13:53.474Z,65.80
2022-08-25T16:16:22.945Z,45.75
2022-08-25T16:18:52.370Z,39.97
2022-08-25T16:21:25.637Z,51.92
2022-08-25T16:23:59.899Z,38.72
2022-08-25T16:26:30.498Z,45.95
2022-08-25T16:28:58.233Z,43.05
2022-08-25T16:31:26.319Z,36.60
2022-08-25T16:33:57.660Z,38.95
2022-08-25T16:36:28.986Z,47.50
2022-08-25T16:38:57.450Z,41.50
2022-08-25T16:41:26.963Z,50.65
2022-08-25T16:43:55.552Z,37.63
2022-08-25T16:46:24.172Z,31.77
2022-08-25T16:48:51.830Z,50.22
2022-08-25T16:51:22.721Z,38.00
2022-08-25T16:53:58.795Z,39.88
2022-08-25T16:56:27.555Z,40.38
2022-08-25T16:58:58.114Z,65.15
2022-08-25T17:01:29.659Z,46.47
2022-08-25T17:03:58.583Z,46.85
2022-08-25T17:06:28.337Z,39.28
2022-08-25T17:08:57.873Z,46.28
2022-08-25T17:11:29.624Z,44.53
2022-08-25T17:14:00.320Z,46.55
2022-08-25T17:16:33.262Z,62.33
2022-08-25T17:19:07.290Z,41.55
2022-08-25T17:21:41.357Z,40.03
2022-08-25T17:24:14.956Z,47.58
2022-08-25T17:26:43.831Z,49.60
2022-08-25T17:29:12.121Z,54.05
2022-08-25T17:31:40.393Z,58.25
2022-08-25T17:34:10.663Z,50.55
2022-08-25T17:36:39.954Z,56.85
2022-08-25T17:39:09.626Z,47.75
2022-08-25T17:41:39.539Z,36.53
2022-08-25T17:44:08.473Z,34.28
2022-08-25T17:46:39.155Z,45.28
2022-08-25T17:49:12.162Z,58.28
2022-08-25T17:51:39.829Z,44.30
2022-08-25T17:54:08.038Z,52.35
2022-08-25T17:56:36.252Z,47.75
2022-08-25T17:59:05.363Z,44.40
2022-08-25T18:01:35.278Z,47.95
2022-08-25T18:04:17.136Z,55.05
2022-08-25T18:06:46.523Z,52.17
2022-08-25T18:09:14.590Z,40.17
2022-08-25T18:11:42.653Z,45.80
2022-08-25T18:14:11.798Z,45.35
2022-08-25T18:16:40.598Z,41.53
2022-08-25T18:19:11.173Z,36.15
2022-08-25T18:21:39.049Z,68.72
2022-08-25T18:24:07.747Z,62.03
2022-08-25T18:26:35.955Z,42.30
2022-08-25T18:29:04.693Z,50.30
2022-08-25T18:31:33.986Z,53.72
2022-08-25T18:34:04.345Z,111.50
2022-08-25T18:36:32.884Z,114.78
2022-08-25T18:39:06.766Z,109.93
2022-08-25T18:41:37.065Z,95.45
2022-08-25T18:44:06.060Z,92.40
2022-08-25T18:46:36.531Z,93.05
2022-08-25T18:49:05.021Z,83.37
2022-08-25T18:51:33.355Z,78.43
2022-08-25T18:54:01.557Z,57.70
2022-08-25T18:56:29.858Z,46.03
2022-08-25T18:58:57.913Z,45.15
2022-08-25T19:01:25.979Z,38.30
2022-08-25T19:03:55.108Z,42.40
2022-08-25T19:06:22.940Z,51.55
2022-08-25T19:08:51.203Z,43.60
2022-08-25T19:11:22.305Z,45.97
2022-08-25T19:13:50.592Z,57.10
2022-08-25T19:16:29.676Z,48.70
2022-08-25T19:18:58.863Z,51.85
2022-08-25T19:21:26.559Z,35.20
2022-08-25T19:23:54.393Z,43.83
2022-08-25T19:26:22.047Z,44.22
2022-08-25T19:28:49.898Z,61.63
2022-08-25T19:31:19.268Z,50.15
2022-08-25T19:33:47.204Z,43.50
2022-08-25T19:36:17.815Z,45.92
2022-08-25T19:38:49.031Z,46.38
2022-08-25T19:41:20.963Z,47.45
2022-08-25T19:43:56.336Z,45.85
2022-08-25T19:46:32.274Z,42.60
2022-08-25T19:49:07.075Z,52.90
2022-08-25T19:51:38.623Z,41.83
2022-08-25T19:54:09.241Z,31.08
2022-08-25T19:56:43.810Z,45.03
2022-08-25T19:59:24.283Z,44.30
2022-08-25T20:01:52.029Z,44.15
2022-08-25T20:04:19.958Z,43.17
2022-08-25T20:06:49.599Z,37.60
2022-08-25T20:09:35.807Z,49.28
2022-08-25T20:12:06.220Z,40.30
2022-08-25T20:14:35.020Z,41.55
2022-08-25T20:17:04.313Z,47.85
2022-08-25T20:19:42.663Z,57.97
2022-08-25T20:22:18.190Z,43.72
2022-08-25T20:24:47.082Z,49.38
2022-08-25T20:27:14.841Z,52.80
2022-08-25T20:29:44.646Z,40.08
2022-08-25T20:32:12.843Z,38.88
2022-08-25T20:34:41.127Z,55.25
2022-08-25T20:37:09.559Z,49.33
2022-08-25T20:39:39.772Z,37.38
2022-08-25T20:42:08.255Z,47.72
2022-08-25T20:44:41.819Z,31.20
2022-08-25T20:47:11.003Z,43.47
2022-08-25T20:49:39.295Z,35.33
2022-08-25T20:52:08.000Z,32.20
2022-08-25T20:54:36.295Z,33.15
2022-08-25T20:57:05.529Z,30.42
2022-08-25T20:59:36.000Z,35.33
2022-08-25T21:02:03.976Z,43.53
2022-08-25T21:04:31.718Z,26.88
2022-08-25T21:07:00.057Z,29.30
2022-08-25T21:09:28.712Z,30.00
2022-08-25T21:11:58.320Z,24.85
2022-08-25T21:14:28.320Z,32.53
2022-08-25T21:16:57.077Z,34.33
2022-08-25T21:19:33.984Z,21.38
2022-08-25T21:22:02.563Z,24.02
2022-08-25T21:24:30.545Z,29.63
2022-08-25T21:26:58.695Z,24.30
2022-08-25T21:29:29.308Z,24.20
2022-08-25T21:31:57.099Z,24.08
2022-08-25T21:34:25.668Z,32.53
2022-08-25T21:36:57.292Z,25.67
2022-08-25T21:39:25.622Z,35.63
2022-08-25T21:41:54.451Z,23.23
2022-08-25T21:44:22.619Z,22.98
2022-08-25T21:46:54.225Z,22.10
2022-08-25T21:49:23.519Z,25.73
2022-08-25T21:52:00.497Z,25.47
2022-08-25T21:54:29.741Z,26.23
2022-08-25T21:56:59.341Z,21.35
2022-08-25T21:59:28.428Z,21.90
2022-08-25T22:02:00.408Z,25.65
2022-08-25T22:06:57.193Z,31.70
2022-08-25T22:09:28.339Z,23.67
2022-08-25T22:11:56.298Z,33.73
2022-08-25T22:14:26.233Z,22.50
2022-08-25T22:16:54.499Z,24.02
2022-08-25T22:19:24.701Z,27.40
2022-08-25T22:21:54.155Z,27.13
2022-08-25T22:24:22.129Z,24.70
2022-08-25T22:26:50.169Z,28.35
2022-08-25T22:29:24.817Z,20.60
2022-08-25T22:31:53.440Z,22.42
2022-08-25T22:34:30.737Z,24.92
2022-08-25T22:37:02.115Z,23.10
2022-08-25T22:39:34.288Z,24.35
2022-08-25T22:42:02.199Z,21.70
2022-08-25T22:44:30.307Z,24.90
2022-08-25T22:46:57.967Z,25.17
2022-08-25T22:49:28.548Z,21.15
2022-08-25T22:51:56.367Z,25.48
2022-08-25T22:54:27.145Z,25.38
2022-08-25T22:56:54.789Z,32.55
2022-08-25T22:59:22.689Z,23.88
2022-08-25T23:01:50.810Z,25.38
2022-08-25T23:04:19.159Z,20.58
2022-08-25T23:06:48.249Z,30.38
2022-08-25T23:09:16.486Z,25.02
2022-08-25T23:11:47.385Z,25.00
2022-08-25T23:14:19.673Z,29.25
2022-08-25T23:16:47.538Z,24.40
2022-08-25T23:19:16.993Z,24.00
2022-08-25T23:21:45.207Z,21.42
2022-08-25T23:24:29.126Z,28.02
2022-08-25T23:27:01.128Z,24.38
2022-08-25T23:29:30.294Z,21.63
2022-08-25T23:31:58.708Z,22.85
2022-08-25T23:34:27.370Z,20.90
2022-08-25T23:36:56.380Z,29.25
2022-08-25T23:39:24.693Z,23.08
2022-08-25T23:41:52.897Z,21.40
2022-08-25T23:44:22.912Z,22.95
2022-08-25T23:46:53.193Z,33.10
2022-08-25T23:49:22.972Z,25.05
2022-08-25T23:51:52.895Z,24.73
2022-08-25T23:54:21.066Z,23.80
2022-08-25T23:56:51.780Z,23.38
2022-08-25T23:59:24.170Z,35.95
